Terminal Aerodrome Forecast
Issued by NWS Brownsville, TX

Home | Current Version | Previous Version | Text Only | Print | Product List | Glossary On
Versions: 1 2 3 4 5 6 7 8 9 10 11 12 13 14
000
FTUS44 KBRO 290300 AAA
TAFMFE
TAF AMD
KMFE 290312Z 2903/2924 12011KT P6SM SKC
     FM290700 16004KT P6SM SCT015
      TEMPO 2910/2913 BKN013
     FM291500 18010KT P6SM FEW035
     FM292100 14014KT P6SM SCT040=

USA.gov is the U.S. government's official web portal to all federal, state and local government web resources and services.